createdAt,value
2019-03-24T00:00:27.781Z,42.55
2019-03-24T00:02:58.676Z,41.50
2019-03-24T00:05:26.904Z,41.63
2019-03-24T00:07:56.879Z,41.75
2019-03-24T00:10:25.293Z,40.23
2019-03-24T00:12:53.520Z,44.13
2019-03-24T00:15:26.291Z,37.10
2019-03-24T00:17:51.744Z,38.63
2019-03-24T00:20:20.316Z,43.92
2019-03-24T00:22:48.795Z,40.10
2019-03-24T00:25:17.036Z,49.45
2019-03-24T00:27:45.269Z,47.95
2019-03-24T00:30:13.505Z,57.38
2019-03-24T00:32:41.733Z,53.92
2019-03-24T00:35:09.972Z,61.10
2019-03-24T00:37:38.201Z,65.45
2019-03-24T00:40:07.007Z,64.20
2019-03-24T00:42:35.336Z,76.75
2019-03-24T00:45:07.576Z,72.08
2019-03-24T00:47:35.872Z,77.70
2019-03-24T00:50:05.956Z,68.97
2019-03-24T00:52:34.181Z,83.62
2019-03-24T00:55:02.422Z,74.00
2019-03-24T00:57:30.652Z,70.65
2019-03-24T00:59:58.930Z,67.75
2019-03-24T01:02:27.164Z,63.98
2019-03-24T01:04:55.400Z,63.60
2019-03-24T01:07:23.631Z,50.95
2019-03-24T01:09:51.867Z,52.53
2019-03-24T01:12:20.092Z,50.23
2019-03-24T01:14:48.337Z,48.65
2019-03-24T01:17:16.560Z,54.33
2019-03-24T01:19:44.799Z,53.60
2019-03-24T01:22:13.028Z,54.00
2019-03-24T01:24:41.265Z,50.15
2019-03-24T01:27:09.811Z,50.52
2019-03-24T01:29:38.044Z,53.15
2019-03-24T01:32:06.275Z,55.78
2019-03-24T01:34:34.503Z,60.25
2019-03-24T01:37:02.734Z,54.30
2019-03-24T01:39:30.965Z,62.27
2019-03-24T01:41:59.188Z,52.58
2019-03-24T01:44:27.466Z,53.45
2019-03-24T01:46:55.696Z,50.83
2019-03-24T01:49:23.924Z,45.60
2019-03-24T01:51:52.172Z,43.95
2019-03-24T01:54:20.401Z,49.35
2019-03-24T01:57:08.060Z,46.63
2019-03-24T01:59:36.280Z,48.58
2019-03-24T02:02:04.521Z,44.73
2019-03-24T02:04:32.836Z,50.10
2019-03-24T02:07:01.071Z,47.85
2019-03-24T02:09:29.766Z,47.48
2019-03-24T02:11:57.997Z,47.60
2019-03-24T02:14:26.218Z,44.83
2019-03-24T02:16:54.454Z,46.60
2019-03-24T02:19:22.675Z,43.70
2019-03-24T02:21:50.908Z,45.03
2019-03-24T02:24:19.133Z,50.88
2019-03-24T02:26:47.372Z,52.90
2019-03-24T02:29:15.592Z,52.80
2019-03-24T02:31:43.907Z,52.53
2019-03-24T02:34:12.425Z,57.48
2019-03-24T02:36:40.661Z,55.67
2019-03-24T02:39:09.135Z,54.50
2019-03-24T02:41:37.401Z,60.30
2019-03-24T02:44:05.609Z,52.17
2019-03-24T02:46:33.841Z,54.48
2019-03-24T02:49:02.068Z,56.65
2019-03-24T02:51:30.292Z,61.08
2019-03-24T02:53:58.520Z,60.75
2019-03-24T02:56:26.752Z,55.48
2019-03-24T02:58:54.975Z,58.23
2019-03-24T03:01:23.213Z,58.70
2019-03-24T03:03:51.433Z,54.42
2019-03-24T03:06:19.677Z,58.08
2019-03-24T03:08:47.898Z,53.17
2019-03-24T03:11:16.136Z,55.60
2019-03-24T03:13:44.365Z,53.83
2019-03-24T03:16:12.608Z,56.95
2019-03-24T03:18:40.833Z,53.40
2019-03-24T03:21:09.061Z,55.15
2019-03-24T03:23:37.285Z,52.48
2019-03-24T03:26:05.524Z,51.83
2019-03-24T03:28:33.744Z,57.73
2019-03-24T03:31:01.986Z,50.65
2019-03-24T03:33:30.226Z,55.48
2019-03-24T03:35:58.612Z,57.48
2019-03-24T03:38:26.869Z,52.90
2019-03-24T03:40:55.150Z,60.38
2019-03-24T03:43:23.386Z,56.33
2019-03-24T03:45:51.645Z,56.48
2019-03-24T03:48:20.253Z,49.83
2019-03-24T03:50:48.479Z,54.67
2019-03-24T03:53:16.709Z,49.90
2019-03-24T03:55:44.920Z,54.70
2019-03-24T03:58:13.164Z,55.25
2019-03-24T04:00:41.387Z,56.10
2019-03-24T04:03:09.613Z,51.00
2019-03-24T04:05:37.859Z,56.28
2019-03-24T04:08:06.359Z,53.23
2019-03-24T04:10:34.578Z,53.05
2019-03-24T04:13:14.863Z,57.65
2019-03-24T04:15:43.090Z,56.30
2019-03-24T04:18:11.334Z,54.83
2019-03-24T04:20:40.092Z,52.70
2019-03-24T04:23:08.592Z,54.18
2019-03-24T04:25:36.870Z,55.78
2019-03-24T04:28:05.109Z,56.42
2019-03-24T04:30:33.345Z,55.98
2019-03-24T04:33:01.582Z,58.98
2019-03-24T04:35:29.792Z,57.60
2019-03-24T04:37:58.026Z,58.98
2019-03-24T04:40:26.244Z,62.48
2019-03-24T04:42:54.784Z,62.78
2019-03-24T04:45:23.008Z,56.85
2019-03-24T04:47:51.248Z,63.08
2019-03-24T04:50:19.473Z,59.25
2019-03-24T04:52:47.704Z,56.75
2019-03-24T04:55:16.266Z,60.58
2019-03-24T04:57:44.502Z,54.65
2019-03-24T05:00:12.716Z,56.48
2019-03-24T05:02:40.953Z,59.85
2019-03-24T05:05:09.540Z,59.53
2019-03-24T05:07:38.353Z,56.23
2019-03-24T05:10:12.756Z,52.80
2019-03-24T05:12:41.064Z,58.25
2019-03-24T05:15:09.352Z,49.88
2019-03-24T05:17:37.583Z,56.33
2019-03-24T05:20:06.681Z,52.85
2019-03-24T05:22:34.908Z,56.13
2019-03-24T05:25:03.204Z,61.23
2019-03-24T05:27:31.744Z,47.70
2019-03-24T05:29:59.973Z,53.85
2019-03-24T05:32:28.205Z,55.75
2019-03-24T05:34:56.432Z,52.08
2019-03-24T05:37:24.661Z,55.73
2019-03-24T05:39:52.892Z,57.17
2019-03-24T05:42:21.114Z,55.25
2019-03-24T05:44:49.412Z,56.18
2019-03-24T05:47:17.636Z,57.05
2019-03-24T05:49:45.864Z,55.55
2019-03-24T05:52:14.092Z,56.30
2019-03-24T05:54:42.328Z,52.35
2019-03-24T05:57:10.552Z,54.03
2019-03-24T05:59:38.789Z,54.33
2019-03-24T06:02:07.008Z,49.25
2019-03-24T06:04:35.238Z,55.40
2019-03-24T06:07:03.460Z,59.85
2019-03-24T06:09:31.688Z,54.98
2019-03-24T06:11:59.984Z,58.38
2019-03-24T06:14:28.220Z,60.80
2019-03-24T06:16:56.444Z,53.33
2019-03-24T06:19:24.675Z,58.13
2019-03-24T06:21:53.196Z,59.23
2019-03-24T06:24:21.430Z,54.70
2019-03-24T06:26:49.658Z,49.90
2019-03-24T06:29:17.889Z,51.85
2019-03-24T06:31:46.116Z,48.60
2019-03-24T06:34:14.348Z,51.77
2019-03-24T06:36:42.572Z,52.08
2019-03-24T06:39:10.809Z,57.15
2019-03-24T06:41:39.024Z,54.18
2019-03-24T06:44:07.264Z,53.30
2019-03-24T06:46:35.489Z,52.62
2019-03-24T06:49:03.734Z,51.23
2019-03-24T06:51:31.944Z,55.23
2019-03-24T06:54:00.488Z,51.35
2019-03-24T06:56:28.786Z,54.35
2019-03-24T06:58:57.019Z,53.65
2019-03-24T07:01:25.295Z,55.05
2019-03-24T07:03:54.055Z,50.78
2019-03-24T07:06:22.883Z,51.02
2019-03-24T07:08:51.234Z,53.68
2019-03-24T07:11:19.682Z,54.33
2019-03-24T07:13:48.038Z,59.03
2019-03-24T07:16:18.469Z,63.87
2019-03-24T07:18:46.450Z,58.23
2019-03-24T07:21:15.193Z,57.10
2019-03-24T07:23:43.586Z,58.68
2019-03-24T07:26:12.039Z,57.58
2019-03-24T07:28:40.373Z,61.73
2019-03-24T07:31:08.825Z,60.80
2019-03-24T07:33:37.609Z,59.85
2019-03-24T07:36:06.236Z,61.05
2019-03-24T07:38:34.688Z,56.30
2019-03-24T07:41:05.813Z,59.18
2019-03-24T07:46:02.072Z,20.90
2019-03-24T07:48:30.533Z,45.28
2019-03-24T07:50:59.141Z,42.83
2019-03-24T07:53:27.371Z,57.73
2019-03-24T07:55:55.612Z,56.83
2019-03-24T07:58:23.843Z,59.83
2019-03-24T08:00:52.081Z,57.62
2019-03-24T08:03:20.304Z,59.80
2019-03-24T08:05:48.642Z,58.33
2019-03-24T08:08:17.047Z,58.30
2019-03-24T08:10:45.657Z,57.38
2019-03-24T08:13:14.126Z,57.73
2019-03-24T08:15:42.519Z,61.45
2019-03-24T08:18:11.125Z,61.98
2019-03-24T08:20:41.381Z,72.35
2019-03-24T08:23:10.138Z,72.80
2019-03-24T08:25:38.696Z,69.17
2019-03-24T08:28:07.563Z,73.22
2019-03-24T08:30:36.927Z,77.27
2019-03-24T08:33:07.412Z,80.77
2019-03-24T08:35:35.866Z,79.47
2019-03-24T08:38:04.796Z,88.58
2019-03-24T08:40:33.233Z,93.22
2019-03-24T08:43:02.961Z,86.22
2019-03-24T08:45:31.429Z,86.45
2019-03-24T08:47:59.938Z,90.72
2019-03-24T08:50:28.332Z,98.50
2019-03-24T08:52:56.822Z,89.62
2019-03-24T08:55:25.701Z,94.75
2019-03-24T08:57:54.078Z,92.55
2019-03-24T09:00:30.479Z,94.28
2019-03-24T09:02:52.778Z,87.40
2019-03-24T09:05:21.174Z,97.72
2019-03-24T09:07:49.747Z,95.32
2019-03-24T09:10:18.074Z,87.75
2019-03-24T09:12:46.472Z,90.57
2019-03-24T09:15:14.881Z,106.35
2019-03-24T09:17:43.349Z,90.92
2019-03-24T09:20:11.825Z,86.37
2019-03-24T09:22:40.051Z,92.88
2019-03-24T09:25:08.281Z,91.25
2019-03-24T09:27:36.520Z,75.12
2019-03-24T09:30:06.690Z,77.10
2019-03-24T09:32:34.926Z,69.73
2019-03-24T09:35:03.829Z,69.92
2019-03-24T09:37:32.339Z,78.62
2019-03-24T09:40:00.561Z,78.02
2019-03-24T09:42:28.890Z,77.58
2019-03-24T09:44:59.105Z,81.97
2019-03-24T09:47:27.883Z,90.28
2019-03-24T09:49:56.337Z,82.78
2019-03-24T09:52:24.730Z,87.85
2019-03-24T09:54:53.081Z,94.65
2019-03-24T09:57:21.533Z,90.30
2019-03-24T09:59:50.018Z,93.20
2019-03-24T10:02:18.421Z,94.92
2019-03-24T10:04:46.816Z,92.20
2019-03-24T10:07:15.325Z,91.35
2019-03-24T10:09:43.850Z,92.75
2019-03-24T10:12:12.080Z,81.85
2019-03-24T10:14:40.582Z,90.47
2019-03-24T10:17:08.817Z,94.05
2019-03-24T10:19:37.045Z,87.70
2019-03-24T10:22:05.287Z,89.20
2019-03-24T10:24:33.785Z,92.60
2019-03-24T10:27:02.024Z,83.30
2019-03-24T10:29:30.252Z,93.37
2019-03-24T10:31:58.510Z,86.02
2019-03-24T10:34:26.719Z,78.55
2019-03-24T10:36:54.966Z,84.97
2019-03-24T10:39:23.461Z,83.87
2019-03-24T10:41:52.128Z,81.35
2019-03-24T10:44:20.367Z,85.35
2019-03-24T10:46:48.889Z,82.05
2019-03-24T10:49:24.737Z,73.35
2019-03-24T10:51:48.448Z,72.17
2019-03-24T10:54:16.694Z,82.50
2019-03-24T10:56:44.921Z,74.32
2019-03-24T10:59:13.444Z,59.73
2019-03-24T11:01:42.266Z,71.00
2019-03-24T11:04:10.820Z,76.33
2019-03-24T11:06:39.403Z,73.02
2019-03-24T11:09:07.969Z,73.50
2019-03-24T11:11:36.421Z,75.37
2019-03-24T11:14:04.973Z,72.05
2019-03-24T11:16:33.848Z,69.45
2019-03-24T11:19:02.530Z,68.20
2019-03-24T11:21:31.316Z,62.53
2019-03-24T11:23:59.785Z,64.22
2019-03-24T11:26:28.176Z,73.42
2019-03-24T11:28:56.610Z,68.42
2019-03-24T11:31:25.064Z,58.50
2019-03-24T11:33:53.512Z,59.25
2019-03-24T11:36:22.971Z,67.32
2019-03-24T11:38:53.266Z,65.70
2019-03-24T11:41:21.558Z,67.62
2019-03-24T11:43:49.991Z,66.28
2019-03-24T11:46:18.794Z,69.27
2019-03-24T11:48:47.304Z,69.72
2019-03-24T11:51:17.324Z,66.77
2019-03-24T11:53:45.897Z,73.03
2019-03-24T11:56:14.765Z,68.07
2019-03-24T11:58:43.300Z,70.50
2019-03-24T12:01:12.239Z,65.67
2019-03-24T12:03:40.546Z,63.65
2019-03-24T12:06:14.537Z,64.58
2019-03-24T12:08:39.029Z,70.20
2019-03-24T12:11:07.267Z,64.32
2019-03-24T12:13:35.519Z,61.45
2019-03-24T12:16:03.744Z,68.33
2019-03-24T12:18:32.321Z,64.60
2019-03-24T12:21:00.564Z,69.25
2019-03-24T12:23:28.888Z,73.90
2019-03-24T12:25:57.132Z,69.05
2019-03-24T12:28:25.385Z,70.60
2019-03-24T12:30:53.632Z,62.98
2019-03-24T12:33:21.913Z,68.97
2019-03-24T12:35:50.140Z,66.40
2019-03-24T12:38:18.407Z,63.05
2019-03-24T12:40:46.636Z,70.22
2019-03-24T12:43:19.422Z,61.90
2019-03-24T12:45:45.223Z,69.35
2019-03-24T12:48:13.559Z,62.20
2019-03-24T12:50:41.859Z,61.13
2019-03-24T12:53:10.100Z,59.85
2019-03-24T12:55:38.332Z,61.23
2019-03-24T12:58:06.587Z,57.70
2019-03-24T13:00:37.117Z,62.45
2019-03-24T13:03:05.557Z,61.68
2019-03-24T13:05:33.787Z,60.08
2019-03-24T13:08:13.773Z,57.03
2019-03-24T13:10:42.740Z,51.15
2019-03-24T13:13:11.535Z,49.30
2019-03-24T13:15:40.404Z,56.33
2019-03-24T13:18:08.660Z,54.60
2019-03-24T13:20:38.726Z,51.90
2019-03-24T13:23:06.860Z,57.03
2019-03-24T13:25:36.351Z,53.70
2019-03-24T13:28:04.823Z,52.00
2019-03-24T13:30:33.085Z,54.80
2019-03-24T13:33:01.388Z,46.60
2019-03-24T13:35:29.637Z,59.48
2019-03-24T13:37:57.865Z,54.08
2019-03-24T13:40:26.165Z,52.38
2019-03-24T13:42:54.408Z,56.85
2019-03-24T13:45:22.659Z,49.35
2019-03-24T13:47:51.171Z,47.48
2019-03-24T13:50:19.412Z,46.18
2019-03-24T13:52:47.640Z,48.52
2019-03-24T13:55:16.105Z,47.45
2019-03-24T13:57:44.337Z,48.10
2019-03-24T14:00:14.222Z,45.17
2019-03-24T14:02:42.460Z,43.30
2019-03-24T14:05:11.054Z,46.88
2019-03-24T14:07:39.283Z,42.30
2019-03-24T14:10:07.609Z,44.75
2019-03-24T14:12:35.840Z,46.60
2019-03-24T14:15:05.920Z,48.92
2019-03-24T14:17:34.143Z,47.83
2019-03-24T14:20:02.386Z,46.73
2019-03-24T14:22:30.661Z,45.63
2019-03-24T14:24:59.042Z,45.20
2019-03-24T14:27:27.252Z,48.23
2019-03-24T14:29:55.502Z,51.60
2019-03-24T14:32:23.728Z,46.70
2019-03-24T14:34:51.994Z,49.98
2019-03-24T14:37:20.278Z,55.30
2019-03-24T14:39:48.517Z,46.75
2019-03-24T14:42:16.748Z,45.08
2019-03-24T14:44:45.273Z,45.70
2019-03-24T14:47:13.501Z,48.70
2019-03-24T14:49:41.741Z,53.08
2019-03-24T14:52:10.012Z,42.80
2019-03-24T14:54:38.258Z,48.38
2019-03-24T14:57:06.797Z,43.15
2019-03-24T14:59:35.037Z,46.13
2019-03-24T15:02:03.377Z,41.95
2019-03-24T15:04:31.620Z,46.55
2019-03-24T15:06:59.851Z,48.87
2019-03-24T15:09:28.100Z,43.00
2019-03-24T15:11:56.332Z,46.70
2019-03-24T15:14:24.562Z,49.30
2019-03-24T15:16:52.824Z,50.88
2019-03-24T15:19:21.052Z,45.55
2019-03-24T15:21:49.453Z,44.95
2019-03-24T15:24:17.692Z,40.43
2019-03-24T15:26:46.219Z,46.95
2019-03-24T15:29:14.441Z,44.10
2019-03-24T15:31:42.689Z,42.85
2019-03-24T15:34:10.911Z,43.78
2019-03-24T15:36:39.425Z,45.15
2019-03-24T15:39:08.992Z,41.35
2019-03-24T15:41:37.235Z,40.35
2019-03-24T15:44:05.461Z,42.27
2019-03-24T15:46:33.704Z,41.35
2019-03-24T15:49:01.935Z,45.70
2019-03-24T15:51:30.525Z,45.10
2019-03-24T15:53:58.760Z,42.45
2019-03-24T15:56:26.984Z,47.00
2019-03-24T15:58:55.218Z,43.02
2019-03-24T16:01:23.473Z,40.98
2019-03-24T16:03:52.004Z,42.67
2019-03-24T16:06:20.244Z,44.53
2019-03-24T16:08:48.466Z,51.55
2019-03-24T16:11:16.723Z,49.45
2019-03-24T16:13:45.176Z,51.20
2019-03-24T16:16:13.416Z,53.17
2019-03-24T16:18:41.661Z,52.08
2019-03-24T16:21:09.905Z,53.58
2019-03-24T16:23:38.148Z,51.88
2019-03-24T16:26:06.373Z,53.63
2019-03-24T16:28:34.604Z,50.67
2019-03-24T16:31:02.886Z,53.60
2019-03-24T16:33:31.164Z,56.75
2019-03-24T16:35:59.709Z,52.78
2019-03-24T16:38:27.952Z,56.25
2019-03-24T16:40:56.215Z,53.05
2019-03-24T16:43:24.845Z,49.93
2019-03-24T16:45:53.095Z,55.40
2019-03-24T16:48:21.326Z,54.23
2019-03-24T16:50:49.573Z,52.73
2019-03-24T16:53:17.814Z,55.03
2019-03-24T16:55:46.333Z,56.95
2019-03-24T16:58:14.576Z,55.28
2019-03-24T17:00:42.822Z,55.43
2019-03-24T17:03:11.049Z,62.98
2019-03-24T17:05:39.309Z,58.23
2019-03-24T17:08:07.537Z,51.95
2019-03-24T17:10:36.085Z,61.00
2019-03-24T17:13:04.676Z,53.30
2019-03-24T17:15:32.918Z,53.60
2019-03-24T17:18:01.428Z,56.37
2019-03-24T17:20:29.659Z,52.75
2019-03-24T17:22:57.900Z,53.68
2019-03-24T17:25:26.469Z,52.85
2019-03-24T17:27:54.770Z,56.13
2019-03-24T17:30:23.017Z,53.92
2019-03-24T17:32:51.593Z,57.27
2019-03-24T17:35:19.838Z,54.55
2019-03-24T17:37:48.360Z,54.50
2019-03-24T17:40:16.952Z,55.50
2019-03-24T17:42:45.201Z,55.70
2019-03-24T17:45:13.433Z,57.13
2019-03-24T17:47:41.670Z,54.60
2019-03-24T17:50:12.077Z,56.92
2019-03-24T17:52:40.484Z,57.40
2019-03-24T17:55:08.728Z,56.98
2019-03-24T17:57:36.972Z,54.58
2019-03-24T18:00:12.992Z,55.15
2019-03-24T18:02:41.231Z,58.48
2019-03-24T18:05:10.530Z,60.25
2019-03-24T18:07:38.764Z,55.63
2019-03-24T18:10:08.439Z,59.25
2019-03-24T18:12:36.716Z,57.35
2019-03-24T18:15:09.542Z,56.90
2019-03-24T18:17:37.780Z,57.65
2019-03-24T18:20:06.457Z,56.33
2019-03-24T18:22:34.719Z,61.98
2019-03-24T18:25:03.343Z,58.68
2019-03-24T18:27:31.634Z,60.90
2019-03-24T18:29:59.860Z,60.48
2019-03-24T18:32:28.106Z,62.43
2019-03-24T18:34:56.325Z,64.62
2019-03-24T18:37:24.610Z,61.85
2019-03-24T18:39:52.940Z,60.45
2019-03-24T18:42:21.264Z,63.58
2019-03-24T18:44:49.512Z,59.88
2019-03-24T18:47:17.761Z,63.38
2019-03-24T18:49:45.992Z,64.27
2019-03-24T18:52:22.290Z,64.37
2019-03-24T18:54:44.571Z,63.52
2019-03-24T18:57:12.848Z,61.55
2019-03-24T18:59:41.117Z,60.78
2019-03-24T19:02:09.480Z,64.40
2019-03-24T19:04:37.731Z,58.85
2019-03-24T19:07:05.988Z,65.65
2019-03-24T19:09:34.221Z,60.17
2019-03-24T19:12:02.504Z,64.77
2019-03-24T19:14:30.731Z,68.57
2019-03-24T19:16:58.964Z,62.25
2019-03-24T19:19:27.193Z,62.53
2019-03-24T19:21:55.452Z,61.37
2019-03-24T19:24:23.913Z,59.80
2019-03-24T19:26:52.482Z,69.30
2019-03-24T19:29:20.709Z,62.60
2019-03-24T19:31:48.960Z,71.15
2019-03-24T19:34:17.270Z,65.65
2019-03-24T19:36:45.512Z,64.70
2019-03-24T19:39:13.861Z,63.35
2019-03-24T19:41:42.444Z,63.38
2019-03-24T19:44:10.708Z,65.72
2019-03-24T19:46:38.936Z,60.25
2019-03-24T19:49:08.489Z,62.50
2019-03-24T19:51:37.192Z,59.65
2019-03-24T19:54:05.696Z,64.40
2019-03-24T19:56:33.923Z,63.87
2019-03-24T19:59:02.192Z,61.45
2019-03-24T20:01:30.441Z,65.72
2019-03-24T20:03:58.757Z,61.00
2019-03-24T20:06:27.483Z,61.80
2019-03-24T20:08:55.707Z,59.65
2019-03-24T20:11:23.928Z,61.00
2019-03-24T20:13:52.260Z,61.00
2019-03-24T20:16:20.501Z,63.23
2019-03-24T20:18:48.744Z,60.73
2019-03-24T20:21:16.977Z,66.90
2019-03-24T20:23:45.241Z,59.70
2019-03-24T20:26:13.828Z,65.22
2019-03-24T20:29:01.811Z,61.92
2019-03-24T20:31:30.105Z,57.48
2019-03-24T20:33:58.345Z,65.37
2019-03-24T20:36:31.194Z,64.77
2019-03-24T20:38:59.434Z,70.75
2019-03-24T20:41:27.664Z,66.62
2019-03-24T20:43:56.012Z,64.30
2019-03-24T20:46:24.660Z,60.25
2019-03-24T20:48:52.988Z,68.52
2019-03-24T20:51:21.216Z,64.30
2019-03-24T20:53:49.476Z,65.40
2019-03-24T20:56:17.705Z,66.77
2019-03-24T20:58:45.949Z,69.35
2019-03-24T21:01:14.171Z,67.67
2019-03-24T21:03:42.413Z,64.30
2019-03-24T21:06:10.752Z,69.62
2019-03-24T21:08:39.248Z,65.97
2019-03-24T21:11:07.724Z,63.85
2019-03-24T21:13:36.208Z,69.67
2019-03-24T21:16:04.693Z,66.15
2019-03-24T21:18:32.939Z,69.37
2019-03-24T21:21:01.449Z,70.22
2019-03-24T21:23:30.070Z,72.08
2019-03-24T21:25:58.401Z,68.97
2019-03-24T21:28:26.640Z,61.18
2019-03-24T21:30:54.868Z,65.25
2019-03-24T21:33:23.123Z,65.05
2019-03-24T21:35:51.354Z,62.90
2019-03-24T21:38:19.668Z,64.95
2019-03-24T21:40:47.893Z,67.30
2019-03-24T21:43:16.145Z,69.80
2019-03-24T21:45:44.371Z,70.08
2019-03-24T21:48:12.613Z,69.22
2019-03-24T21:50:40.845Z,66.30
2019-03-24T21:53:09.091Z,67.97
2019-03-24T21:55:37.312Z,66.28
2019-03-24T21:58:05.553Z,70.97
2019-03-24T22:00:36.503Z,64.75
2019-03-24T22:03:04.950Z,70.30
2019-03-24T22:05:33.508Z,67.87
2019-03-24T22:08:01.753Z,69.95
2019-03-24T22:10:29.984Z,69.25
2019-03-24T22:13:17.717Z,65.28
2019-03-24T22:15:45.968Z,62.35
2019-03-24T22:18:14.208Z,69.40
2019-03-24T22:20:48.779Z,71.33
2019-03-24T22:23:13.041Z,68.30
2019-03-24T22:25:41.337Z,66.02
2019-03-24T22:28:09.576Z,66.40
2019-03-24T22:30:37.807Z,67.70
2019-03-24T22:33:06.049Z,68.33
2019-03-24T22:35:34.272Z,67.05
2019-03-24T22:38:02.503Z,69.37
2019-03-24T22:40:30.745Z,67.03
2019-03-24T22:42:59.204Z,68.02
2019-03-24T22:45:27.444Z,66.50
2019-03-24T22:47:55.676Z,69.40
2019-03-24T22:50:23.965Z,69.12
2019-03-24T22:52:52.456Z,69.35
2019-03-24T22:55:20.696Z,68.57
2019-03-24T22:57:48.928Z,67.03
2019-03-24T23:00:18.809Z,69.27
2019-03-24T23:02:47.037Z,64.07
2019-03-24T23:05:15.281Z,68.65
2019-03-24T23:07:43.504Z,67.67
2019-03-24T23:10:12.589Z,65.08
2019-03-24T23:12:40.816Z,67.90
2019-03-24T23:15:09.059Z,69.07
2019-03-24T23:17:37.455Z,59.18
2019-03-24T23:20:06.370Z,57.98
2019-03-24T23:22:34.596Z,53.23
2019-03-24T23:25:03.005Z,39.15
2019-03-24T23:27:31.232Z,39.60
2019-03-24T23:29:59.472Z,37.50
2019-03-24T23:32:27.695Z,35.17
2019-03-24T23:34:55.941Z,34.10
2019-03-24T23:37:24.172Z,31.95
2019-03-24T23:39:52.608Z,35.70
2019-03-24T23:42:20.845Z,34.98
2019-03-24T23:44:49.164Z,38.10
2019-03-24T23:47:17.395Z,34.92
2019-03-24T23:49:45.638Z,36.75
2019-03-24T23:52:13.863Z,39.70
2019-03-24T23:54:42.168Z,36.03
2019-03-24T23:57:10.720Z,36.23
2019-03-24T23:59:38.958Z,40.00
